KMZH

Details ICAO KMZH
Name MOOSE LAKE CARLTON CO
Region United States
Timezone America/Chicago (UTC-5.0)
Plans Departing 2
Arriving 3
Stats Elevation 1,076 ft / 328 m (AMSL)
Location 46.418599° -92.804779°
Runways 1
Magnetic Variation 0.375° W
Sunrise 2018-05-24 10:29:44 UTC / 2018-05-24 05:29:44 Local
Sunset 2018-05-25 01:49:17 UTC / 2018-05-24 20:49:17 Local
Advertisement - Login to hide

Runways

ID Width Length Bearing (true) Bearing (mag) Surface Threshold Offset Overrun Length
04 75 ft / 23 m 3,199 ft / 975 m 40.30° 40.67° Asphalt 0 ft / 0 m 0 ft / 0 m
22 75 ft / 23 m 3,199 ft / 975 m 220.30° 220.67° Asphalt 0 ft / 0 m 0 ft / 0 m

Map

Weather


0- 5 10 15 20 25 30 35+ Temperature / ° C

Clouds and Precipitation
Forecast for 2018-05-25 00:00 UTC. Updated 2 hours ago

Ground ~20,000 ft ~40,000 ft Winds

METAR

KMZH 250135Z AUTO 00000KT 10SM CLR 21/18 A2982 RMK AO2

TAF

Not found

Frequencies

Unicom 122.90 MHz CTAF
Approach 125.45 MHz DULUTH APP/DEP
Warning: Do not use this data for real-world aviation or navigation. No guarantee of current accuracy is given.